默认 日期 大小 文件数 浏览量 最新下载 xml
bangers磁力链接相关资源由用户搜索指令自动获取,结果来源于网络,本站不存储任何资料,亦不承担任何责任,请于24小时内删除,搜索到1895个磁力,用时2ms。
    {"Boob Bangers 8 (2011) [DVDRip][WwW.ZoNaTorrent.CoM][CD1].avi": 732481536, "Boob Bangers 8 (2011) [DVDRip][WwW.ZoNaTorrent.CoM][CD2].avi": 734498816}
创建时间: 2020-03-22 20:00:00 大小:1.37 GB 文件数量:2 热度:2 最近下载:2023-12-28 15:37:09
    {"DiSC 1.mp4": 1618478150, "DiSC 2.mp4": 2162738069, "16877s27h.jpg": 183662, "DiSC 1.mp4.jpg": 566385, "DiSC 2.mp4.jpg": 571046}
创建时间: 2020-03-22 23:25:46 大小:3.52 GB 文件数量:5 热度:4 最近下载:2025-02-27 12:53:03
    {"CD1": {"clit-boob.bangers.8_cd1.avi": 732481536}, "CD2": {"clit-boob.bangers.8_cd2.avi": 734498816}, "www.TorrentDay.com.jpg": 454, "clit-boob.bangers.8.nfo": 1062, "Visit - WWW.TORRENTDAY.COM.jpg": 454}
创建时间: 2020-03-22 23:51:47 大小:1.37 GB 文件数量:5 热度:2 最近下载:2023-12-28 16:37:03
    {"folder.jpg": 252666, "17. Alcazar - Good Lovin.mp3": 9000629, "15. Superwatios - ¡Bingo!.mp3": 8507424, "08. Rob n Raz - Power House.mp3": 11163573, "Torrent Downloaded from RARBG.to.txt": 40, "11. Estelle - Moon Over Madrid.mp3": 9724755, " ...
创建时间: 2020-03-23 16:14:24 大小:173.23 MB 文件数量:21 热度:3 最近下载:2023-12-28 20:14:03
    {"杏吧社区地址发布器.exe": 2264576, "191008_0322_1440P_8000K_77531771.mp4": 717662344, "杏吧社区-点关注不迷路.jpg.jpg": 245532, "杏吧社区-点关注不迷路.txt.txt": 709}
创建时间: 2020-03-24 11:37:28 大小:686.81 MB 文件数量:4 热度:9 最近下载:2025-09-21 20:44:04
    {"Covers": {"amitight-threewaybangers-cover.jpg": 191120}, "amitight-threewaybangers.mp4": 2285149052}
创建时间: 2020-03-24 18:48:33 大小:2.13 GB 文件数量:2 热度:10 最近下载:2023-12-29 02:37:04
    {"Jasmine JaeTwo bangers in the mouth": {"Jasminemouth720p.mp4": 2903956997, "Jasminemouth720p_s.jpg": 552634}}
创建时间: 2020-03-25 21:00:49 大小:2.71 GB 文件数量:2 热度:8 最近下载:2025-07-05 17:02:18
    {"poster.jpg": 46424, "screens.jpg": 296736, "76.Jessi.mp4": 733477228, "RARBG.com.txt": 33}
创建时间: 2020-03-26 20:45:05 大小:699.83 MB 文件数量:4 热度:6 最近下载:2025-09-17 11:10:06
    {"m19.png": 41300, "folder.jpg": 252666, "radyjko.url": 124, "cool-torrent.pl.txt": 3986, "cool-torrent.pl.url": 112, "17. Alcazar - Good Lovin.mp3": 9000629, "15. Superwatios - ¡Bingo!.mp3": 8507424, "08. Rob n Raz - Power House.mp3": 11163573, " ...
创建时间: 2020-03-27 04:51:54 大小:173.27 MB 文件数量:24 热度:2 最近下载:2023-12-29 10:51:04
    {"readme.zip": 146784, " Gangland Bangers XXX ITALIAN Classic (DVDRip).avi": 383984133}
创建时间: 2020-03-27 15:34:24 大小:366.34 MB 文件数量:2 热度:10 最近下载:2024-03-22 18:49:01
    {"2160P_15000K_265980122.mp4": 1698928310, "杏吧社区地址发布器.exe": 2264576, "杏吧社区-点关注不迷路.jpg.jpg": 245532, "杏吧社区-点关注不迷路.txt.txt": 709}
创建时间: 2020-03-27 17:30:26 大小:1.58 GB 文件数量:4 热度:10 最近下载:2024-12-16 04:29:01
    {"poster.jpg": 33488, "screens.jpg": 264481, "51.Morgan.mp4": 702594423}
创建时间: 2020-04-01 11:29:08 大小:670.33 MB 文件数量:3 热度:3 最近下载:2023-12-29 15:48:07
    {"AUDIOSTRiKE.nfo": 4139, "astr-sgmcbmp.r00": 1500000, "astr-sgmcbmp.r01": 1500000, "astr-sgmcbmp.r02": 1500000, "astr-sgmcbmp.r03": 1175764, "astr-sgmcbmp.rar": 1500000, "astr-sgmcbmp.sfv": 135}
创建时间: 2020-04-02 14:18:54 大小:6.85 MB 文件数量:7 热度:4 最近下载:2024-12-26 07:53:02
    {"Cover.jpg": 89132, "17. BloodDropz! - She (Club Mix).mp3": 16006493, "19. StarX - Reality (Original Mix).mp3": 8459213, "07. Turnlow - Brahma (Original Mix).mp3": 8982693, "14. CJ Alexis - Music Love (Hard Mix).mp3": 8533407, "02. Jack dB - Future Tek ( ...
创建时间: 2020-04-06 16:26:42 大小:306.4 MB 文件数量:26 热度:2 最近下载:2023-12-30 02:23:01
    {"Cover.jpg": 107537, "22. M1dy - Mukui (Original Mix).mp3": 7187228, "21. Tamerax - Poison (Original Mix).mp3": 13086730, "24. Tarek - Koot Koot (Original Mix).mp3": 13055385, "14. Elivate - Attention! (Radio Edit).mp3": 7775518, "25. BloodDropz! - ...
创建时间: 2020-04-10 19:41:33 大小:304.66 MB 文件数量:26 热度:3 最近下载:2023-12-30 10:11:05
    {"00 - (nfo).nfo": 2965, "00 - cover.jpg": 136034, "00 - (read this!).txt": 140, "00 - wit-e logo 1.gif": 3027, "00 - wit-e logo 2.gif": 135500, "05 - LSG - My Body.mp3": 5800336, "15 - 112 - Anywhere.mp3": 5113838, "08 - Usher - Nice & Slow.mp3": 4664323, ...
创建时间: 2020-04-11 02:46:06 大小:109.83 MB 文件数量:23 热度:4 最近下载:2025-08-02 13:02:24
    {"Cover.jpg": 106245, "12. JT - Ghost (Original Mix).mp3": 10726102, "16. MHX - Reckless (Original Mix).mp3": 15677881, "20. Kinetic - The Beast (Original Mix).mp3": 21100911, "06. Kev & Si - Fat Greek (Original Mix).mp3": 19243085, "23. Rat-e - Brain ...
创建时间: 2020-04-11 09:14:40 大小:380.65 MB 文件数量:26 热度:2 最近下载:2023-12-30 14:13:03
    {"Gsg - Bangers Cant Be Choosers.mp4": 2065979446}
创建时间: 2020-04-11 15:27:56 大小:1.92 GB 文件数量:1 热度:4 最近下载:2023-12-30 15:30:06
    {"poster.jpg": 24089, "screens.jpg": 241612, "58.Naomi.mp4": 661422970}
创建时间: 2020-04-14 02:25:37 大小:631.04 MB 文件数量:3 热度:4 最近下载:2025-01-30 01:20:03
    {"poster.jpg": 35268, "screens.jpg": 270707, "44.Nikki.mp4": 728240552}
创建时间: 2020-04-14 05:07:37 大小:694.8 MB 文件数量:3 热度:3 最近下载:2023-12-30 19:45:04